createdAt,value
2018-09-15T00:01:54.719Z,8.82
2018-09-15T00:04:22.991Z,8.67
2018-09-15T00:06:52.286Z,8.64
2018-09-15T00:09:20.577Z,8.60
2018-09-15T00:11:48.884Z,8.55
2018-09-15T00:14:17.163Z,8.61
2018-09-15T00:16:45.444Z,8.57
2018-09-15T00:19:13.736Z,8.61
2018-09-15T00:21:42.072Z,8.58
2018-09-15T00:24:10.342Z,8.43
2018-09-15T00:26:38.632Z,8.45
2018-09-15T00:29:07.024Z,8.39
2018-09-15T00:31:35.775Z,8.50
2018-09-15T00:34:04.048Z,8.52
2018-09-15T00:36:32.328Z,8.60
2018-09-15T00:39:00.688Z,8.63
2018-09-15T00:41:28.930Z,8.88
2018-09-15T00:43:57.205Z,9.01
2018-09-15T00:46:25.495Z,9.30
2018-09-15T00:48:53.782Z,9.66
2018-09-15T00:51:22.054Z,9.71
2018-09-15T00:53:50.351Z,9.97
2018-09-15T00:56:18.626Z,10.04
2018-09-15T00:58:46.995Z,10.05
2018-09-15T01:01:15.264Z,10.10
2018-09-15T01:03:43.567Z,10.30
2018-09-15T01:06:12.051Z,10.20
2018-09-15T01:08:40.338Z,10.22
2018-09-15T01:11:08.618Z,10.25
2018-09-15T01:13:37.423Z,10.46
2018-09-15T01:16:05.687Z,10.48
2018-09-15T01:18:34.042Z,10.39
2018-09-15T01:21:02.323Z,10.48
2018-09-15T01:23:30.616Z,10.41
2018-09-15T01:25:58.952Z,10.28
2018-09-15T01:28:27.176Z,10.30
2018-09-15T01:30:55.480Z,10.24
2018-09-15T01:33:23.731Z,10.19
2018-09-15T01:35:51.994Z,10.37
2018-09-15T01:38:20.279Z,10.38
2018-09-15T01:40:48.555Z,10.45
2018-09-15T01:43:16.838Z,10.39
2018-09-15T01:45:45.111Z,10.35
2018-09-15T01:48:13.395Z,10.39
2018-09-15T01:50:41.654Z,10.38
2018-09-15T01:53:09.938Z,10.23
2018-09-15T01:55:38.250Z,10.05
2018-09-15T01:58:06.540Z,10.15
2018-09-15T02:00:34.842Z,10.10
2018-09-15T02:03:03.157Z,10.18
2018-09-15T02:05:31.469Z,10.26
2018-09-15T02:07:59.750Z,10.40
2018-09-15T02:10:28.041Z,10.49
2018-09-15T02:12:56.323Z,10.64
2018-09-15T02:15:24.615Z,10.44
2018-09-15T02:17:52.887Z,10.49
2018-09-15T02:20:21.199Z,10.49
2018-09-15T02:22:49.545Z,10.52
2018-09-15T02:25:17.791Z,10.63
2018-09-15T02:27:46.075Z,10.63
2018-09-15T02:30:14.370Z,10.65
2018-09-15T02:32:42.674Z,10.76
2018-09-15T02:35:10.967Z,10.64
2018-09-15T02:37:39.230Z,10.67
2018-09-15T02:40:07.556Z,10.77
2018-09-15T02:42:36.147Z,10.79
2018-09-15T02:45:04.470Z,10.88
2018-09-15T02:47:32.782Z,10.94
2018-09-15T02:50:01.071Z,10.98
2018-09-15T02:52:29.355Z,10.99
2018-09-15T02:54:57.655Z,11.04
2018-09-15T02:57:25.946Z,11.02
2018-09-15T02:59:54.259Z,11.03
2018-09-15T03:02:22.716Z,11.11
2018-09-15T03:04:51.027Z,11.26
2018-09-15T03:07:20.308Z,11.22
2018-09-15T03:09:48.619Z,11.25
2018-09-15T03:12:16.918Z,11.15
2018-09-15T03:14:45.204Z,11.09
2018-09-15T03:17:13.516Z,11.08
2018-09-15T03:19:41.823Z,11.11
2018-09-15T03:22:10.230Z,11.20
2018-09-15T03:24:38.778Z,11.14
2018-09-15T03:27:07.082Z,11.03
2018-09-15T03:29:35.343Z,11.17
2018-09-15T03:32:03.647Z,11.12
2018-09-15T03:34:31.967Z,11.21
2018-09-15T03:37:00.262Z,11.07
2018-09-15T03:39:28.855Z,11.10
2018-09-15T03:41:57.163Z,11.13
2018-09-15T03:44:25.446Z,11.12
2018-09-15T03:46:53.758Z,11.04
2018-09-15T03:49:22.028Z,11.01
2018-09-15T03:51:50.939Z,10.98
2018-09-15T03:54:20.725Z,10.85
2018-09-15T03:56:49.338Z,10.76
2018-09-15T03:59:18.094Z,10.72
2018-09-15T04:01:47.223Z,10.74
2018-09-15T04:04:15.483Z,10.71
2018-09-15T04:06:43.783Z,10.70
2018-09-15T04:09:12.345Z,10.65
2018-09-15T04:11:40.636Z,10.71
2018-09-15T04:14:09.398Z,10.55
2018-09-15T04:16:37.890Z,10.39
2018-09-15T04:19:06.191Z,10.29
2018-09-15T04:21:34.499Z,10.07
2018-09-15T04:24:02.782Z,9.86
2018-09-15T04:26:31.063Z,9.68
2018-09-15T04:28:59.352Z,9.53
2018-09-15T04:31:27.610Z,9.37
2018-09-15T04:33:55.922Z,9.35
2018-09-15T04:36:24.196Z,9.33
2018-09-15T04:38:52.515Z,9.34
2018-09-15T04:41:20.917Z,9.37
2018-09-15T04:43:49.419Z,9.48
2018-09-15T04:46:17.699Z,9.58
2018-09-15T04:48:46.995Z,9.65
2018-09-15T04:51:15.267Z,9.79
2018-09-15T04:53:43.559Z,9.82
2018-09-15T04:56:11.840Z,9.79
2018-09-15T04:58:40.155Z,9.80
2018-09-15T05:01:08.414Z,9.76
2018-09-15T05:03:36.735Z,9.80
2018-09-15T05:06:05.000Z,9.74
2018-09-15T05:08:33.775Z,9.83
2018-09-15T05:11:02.031Z,9.78
2018-09-15T05:13:30.535Z,9.96
2018-09-15T05:15:58.815Z,10.16
2018-09-15T05:18:27.107Z,10.17
2018-09-15T05:20:55.399Z,10.24
2018-09-15T05:23:23.707Z,10.20
2018-09-15T05:25:52.379Z,10.31
2018-09-15T05:28:20.667Z,10.43
2018-09-15T05:30:48.948Z,10.49
2018-09-15T05:33:17.255Z,10.47
2018-09-15T05:35:45.802Z,10.59
2018-09-15T05:38:14.103Z,10.66
2018-09-15T05:40:42.406Z,10.84
2018-09-15T05:43:10.799Z,10.98
2018-09-15T05:45:39.075Z,11.15
2018-09-15T05:48:07.382Z,11.26
2018-09-15T05:50:35.642Z,11.38
2018-09-15T05:53:03.915Z,11.55
2018-09-15T05:55:32.225Z,11.72
2018-09-15T05:58:00.591Z,12.00
2018-09-15T06:00:28.958Z,11.92
2018-09-15T06:02:57.224Z,11.83
2018-09-15T06:05:25.803Z,11.88
2018-09-15T06:07:54.087Z,12.12
2018-09-15T06:10:22.388Z,12.28
2018-09-15T06:12:50.679Z,12.36
2018-09-15T06:15:18.976Z,12.39
2018-09-15T06:17:47.654Z,12.65
2018-09-15T06:20:16.460Z,12.65
2018-09-15T06:22:44.727Z,12.57
2018-09-15T06:25:13.043Z,12.52
2018-09-15T06:27:41.663Z,12.39
2018-09-15T06:30:09.976Z,12.34
2018-09-15T06:32:38.250Z,14.37
2018-09-15T06:35:06.551Z,17.47
2018-09-15T06:37:34.815Z,18.25
2018-09-15T06:40:03.406Z,18.60
2018-09-15T06:42:31.683Z,18.88
2018-09-15T06:44:59.988Z,21.18
2018-09-15T06:47:28.487Z,21.84
2018-09-15T06:49:56.790Z,21.27
2018-09-15T06:52:25.063Z,23.80
2018-09-15T06:54:53.384Z,22.77
2018-09-15T06:57:21.692Z,20.37
2018-09-15T06:59:51.011Z,22.27
2018-09-15T07:02:19.618Z,22.24
2018-09-15T07:04:47.935Z,23.45
2018-09-15T07:07:16.215Z,25.42
2018-09-15T07:09:44.507Z,26.31
2018-09-15T07:12:13.136Z,26.04
2018-09-15T07:14:41.428Z,25.11
2018-09-15T07:17:09.723Z,25.35
2018-09-15T07:19:37.999Z,23.95
2018-09-15T07:22:06.374Z,24.10
2018-09-15T07:24:34.652Z,25.96
2018-09-15T07:27:02.971Z,27.20
2018-09-15T07:29:31.243Z,27.03
2018-09-15T07:31:59.588Z,26.01
2018-09-15T07:34:27.835Z,26.95
2018-09-15T07:36:56.129Z,28.62
2018-09-15T07:39:24.426Z,27.85
2018-09-15T07:41:52.726Z,25.96
2018-09-15T07:44:20.991Z,26.82
2018-09-15T07:46:49.639Z,27.43
2018-09-15T07:49:17.934Z,29.06
2018-09-15T07:51:46.287Z,29.44
2018-09-15T07:54:14.553Z,25.92
2018-09-15T07:56:42.882Z,27.46
2018-09-15T07:59:11.187Z,27.19
2018-09-15T08:01:39.490Z,28.65
2018-09-15T08:04:07.798Z,27.71
2018-09-15T08:06:36.120Z,28.11
2018-09-15T08:09:05.143Z,30.00
2018-09-15T08:11:33.455Z,28.02
2018-09-15T08:14:01.734Z,25.96
2018-09-15T08:16:30.039Z,28.62
2018-09-15T08:18:58.335Z,28.30
2018-09-15T08:21:26.643Z,28.70
2018-09-15T08:23:55.339Z,30.07
2018-09-15T08:26:23.747Z,31.58
2018-09-15T08:28:52.299Z,28.18
2018-09-15T08:31:20.640Z,29.76
2018-09-15T08:33:48.942Z,29.41
2018-09-15T08:36:17.255Z,31.21
2018-09-15T08:38:45.547Z,33.78
2018-09-15T08:41:13.822Z,29.79
2018-09-15T08:43:42.130Z,31.01
2018-09-15T08:46:10.387Z,31.17
2018-09-15T08:48:38.699Z,30.27
2018-09-15T08:51:07.143Z,30.51
2018-09-15T08:53:35.447Z,29.52
2018-09-15T08:56:04.182Z,29.37
2018-09-15T08:58:32.862Z,30.13
2018-09-15T09:01:01.178Z,30.95
2018-09-15T09:03:29.502Z,28.93
2018-09-15T09:05:57.787Z,30.87
2018-09-15T09:08:26.100Z,33.31
2018-09-15T09:10:54.470Z,31.37
2018-09-15T09:13:22.762Z,32.05
2018-09-15T09:15:51.044Z,32.87
2018-09-15T09:18:19.335Z,29.51
2018-09-15T09:20:48.247Z,31.99
2018-09-15T09:23:16.553Z,33.36
2018-09-15T09:25:44.873Z,34.22
2018-09-15T09:28:13.523Z,32.34
2018-09-15T09:30:41.822Z,32.05
2018-09-15T09:33:10.155Z,34.13
2018-09-15T09:35:38.799Z,36.36
2018-09-15T09:38:07.141Z,34.87
2018-09-15T09:40:35.451Z,29.57
2018-09-15T09:43:03.742Z,32.72
2018-09-15T09:45:32.045Z,29.24
2018-09-15T09:48:00.404Z,31.50
2018-09-15T09:50:28.635Z,32.19
2018-09-15T09:52:56.914Z,28.62
2018-09-15T09:55:25.224Z,26.68
2018-09-15T09:57:53.511Z,29.92
2018-09-15T10:00:26.958Z,31.14
2018-09-15T10:02:56.082Z,32.88
2018-09-15T10:05:24.372Z,34.32
2018-09-15T10:07:52.650Z,30.43
2018-09-15T10:10:20.959Z,27.18
2018-09-15T10:12:49.615Z,25.20
2018-09-15T10:15:17.943Z,25.93
2018-09-15T10:17:46.235Z,24.63
2018-09-15T10:20:14.939Z,23.36
2018-09-15T10:22:44.008Z,24.50
2018-09-15T10:25:12.298Z,23.71
2018-09-15T10:27:41.485Z,22.33
2018-09-15T10:30:10.152Z,21.38
2018-09-15T10:32:38.975Z,21.03
2018-09-15T10:35:07.836Z,20.38
2018-09-15T10:37:36.487Z,19.89
2018-09-15T10:40:05.211Z,20.43
2018-09-15T10:42:33.490Z,20.20
2018-09-15T10:45:02.830Z,20.55
2018-09-15T10:47:32.361Z,25.15
2018-09-15T10:50:00.659Z,24.62
2018-09-15T10:52:29.507Z,23.32
2018-09-15T10:54:58.051Z,22.01
2018-09-15T10:57:26.662Z,22.07
2018-09-15T10:59:55.689Z,22.17
2018-09-15T11:02:24.963Z,22.81
2018-09-15T11:04:53.792Z,22.78
2018-09-15T11:07:22.184Z,22.21
2018-09-15T11:09:51.270Z,21.67
2018-09-15T11:12:19.587Z,21.18
2018-09-15T11:14:49.307Z,21.14
2018-09-15T11:17:18.011Z,21.71
2018-09-15T11:19:46.805Z,21.54
2018-09-15T11:22:15.127Z,22.73
2018-09-15T11:24:43.448Z,22.58
2018-09-15T11:27:11.766Z,22.35
2018-09-15T11:29:40.391Z,22.67
2018-09-15T11:32:08.730Z,20.49
2018-09-15T11:34:37.347Z,21.49
2018-09-15T11:37:05.910Z,20.76
2018-09-15T11:39:34.174Z,20.75
2018-09-15T11:42:02.472Z,20.24
2018-09-15T11:44:30.755Z,20.98
2018-09-15T11:46:59.457Z,20.34
2018-09-15T11:49:28.275Z,20.11
2018-09-15T11:51:56.584Z,20.13
2018-09-15T11:54:25.091Z,19.97
2018-09-15T11:56:53.392Z,20.07
2018-09-15T11:59:21.687Z,19.75
2018-09-15T12:01:50.009Z,19.43
2018-09-15T12:04:18.294Z,19.56
2018-09-15T12:06:46.975Z,19.57
2018-09-15T12:09:15.271Z,19.47
2018-09-15T12:11:43.742Z,19.19
2018-09-15T12:14:12.467Z,19.50
2018-09-15T12:16:40.687Z,19.38
2018-09-15T12:19:08.998Z,19.80
2018-09-15T12:21:37.745Z,20.15
2018-09-15T12:24:06.303Z,20.30
2018-09-15T12:26:34.565Z,20.88
2018-09-15T12:29:02.875Z,21.16
2018-09-15T12:31:31.146Z,22.65
2018-09-15T12:33:59.452Z,25.87
2018-09-15T12:36:27.803Z,27.80
2018-09-15T12:38:56.127Z,27.86
2018-09-15T12:41:24.415Z,26.32
2018-09-15T12:43:52.728Z,25.53
2018-09-15T12:46:21.035Z,25.52
2018-09-15T12:48:49.341Z,25.30
2018-09-15T12:51:17.622Z,25.24
2018-09-15T12:53:46.211Z,25.30
2018-09-15T12:56:14.587Z,24.16
2018-09-15T12:58:43.002Z,23.36
2018-09-15T13:01:11.283Z,22.59
2018-09-15T13:03:40.015Z,22.36
2018-09-15T13:06:08.375Z,22.10
2018-09-15T13:08:36.658Z,21.71
2018-09-15T13:11:04.980Z,21.48
2018-09-15T13:13:33.303Z,21.43
2018-09-15T13:16:01.864Z,21.13
2018-09-15T13:18:30.182Z,21.00
2018-09-15T13:20:58.872Z,20.77
2018-09-15T13:23:27.151Z,21.04
2018-09-15T13:25:55.823Z,20.52
2018-09-15T13:28:24.087Z,20.69
2018-09-15T13:30:52.380Z,21.21
2018-09-15T13:33:20.658Z,21.30
2018-09-15T13:35:48.961Z,22.28
2018-09-15T13:38:17.263Z,22.52
2018-09-15T13:40:45.703Z,24.85
2018-09-15T13:43:13.983Z,27.90
2018-09-15T13:45:42.287Z,30.20
2018-09-15T13:48:10.566Z,30.30
2018-09-15T13:50:38.871Z,27.13
2018-09-15T13:53:07.479Z,23.95
2018-09-15T13:55:35.738Z,22.17
2018-09-15T13:58:04.027Z,22.37
2018-09-15T14:00:32.339Z,21.57
2018-09-15T14:03:00.618Z,21.37
2018-09-15T14:05:28.943Z,21.37
2018-09-15T14:07:57.615Z,21.11
2018-09-15T14:10:25.910Z,21.33
2018-09-15T14:12:54.192Z,21.21
2018-09-15T14:15:22.517Z,21.00
2018-09-15T14:17:50.810Z,20.82
2018-09-15T14:20:19.155Z,20.86
2018-09-15T14:22:47.448Z,21.00
2018-09-15T14:25:15.759Z,21.17
2018-09-15T14:27:44.598Z,21.03
2018-09-15T14:30:12.891Z,21.22
2018-09-15T14:32:41.171Z,21.12
2018-09-15T14:35:09.695Z,21.08
2018-09-15T14:37:37.975Z,21.24
2018-09-15T14:40:06.310Z,21.04
2018-09-15T14:42:34.614Z,21.13
2018-09-15T14:45:02.903Z,21.26
2018-09-15T14:47:31.203Z,20.93
2018-09-15T14:49:59.486Z,21.30
2018-09-15T14:52:27.800Z,22.78
2018-09-15T14:54:56.079Z,25.63
2018-09-15T14:57:24.404Z,26.54
2018-09-15T14:59:52.687Z,26.62
2018-09-15T15:02:20.995Z,26.54
2018-09-15T15:04:49.458Z,25.35
2018-09-15T15:07:17.758Z,24.06
2018-09-15T15:09:46.043Z,23.35
2018-09-15T15:12:14.355Z,22.60
2018-09-15T15:14:42.895Z,22.19
2018-09-15T15:17:11.200Z,21.72
2018-09-15T15:19:39.539Z,21.38
2018-09-15T15:22:07.851Z,21.56
2018-09-15T15:24:36.298Z,21.24
2018-09-15T15:27:04.627Z,21.03
2018-09-15T15:29:32.899Z,20.80
2018-09-15T15:32:01.242Z,20.73
2018-09-15T15:34:29.761Z,20.49
2018-09-15T15:36:58.190Z,20.43
2018-09-15T15:39:26.465Z,20.31
2018-09-15T15:41:54.769Z,20.73
2018-09-15T15:44:23.046Z,21.02
2018-09-15T15:46:51.945Z,20.77
2018-09-15T15:49:20.243Z,20.79
2018-09-15T15:51:48.555Z,20.87
2018-09-15T15:54:16.847Z,20.99
2018-09-15T15:56:46.139Z,20.74
2018-09-15T15:59:14.444Z,20.50
2018-09-15T16:01:42.740Z,20.29
2018-09-15T16:04:11.016Z,19.93
2018-09-15T16:06:39.347Z,19.61
2018-09-15T16:09:08.584Z,19.50
2018-09-15T16:11:37.827Z,19.35
2018-09-15T16:14:06.083Z,19.26
2018-09-15T16:16:34.399Z,19.15
2018-09-15T16:19:02.688Z,19.14
2018-09-15T16:21:31.226Z,19.06
2018-09-15T16:23:59.514Z,19.06
2018-09-15T16:26:27.778Z,19.02
2018-09-15T16:28:56.087Z,19.18
2018-09-15T16:31:24.986Z,19.24
2018-09-15T16:33:53.287Z,19.45
2018-09-15T16:36:21.556Z,19.53
2018-09-15T16:38:49.895Z,19.74
2018-09-15T16:41:18.166Z,19.77
2018-09-15T16:43:46.495Z,19.50
2018-09-15T16:46:14.774Z,19.42
2018-09-15T16:48:43.070Z,19.42
2018-09-15T16:51:11.363Z,19.33
2018-09-15T16:53:39.672Z,19.40
2018-09-15T16:56:07.951Z,19.09
2018-09-15T16:58:36.278Z,19.17
2018-09-15T17:01:04.591Z,18.91
2018-09-15T17:03:33.003Z,18.75
2018-09-15T17:06:01.237Z,18.58
2018-09-15T17:08:29.563Z,18.34
2018-09-15T17:10:57.838Z,18.07
2018-09-15T17:13:26.131Z,17.87
2018-09-15T17:15:54.453Z,17.60
2018-09-15T17:18:22.726Z,17.35
2018-09-15T17:20:51.027Z,17.06
2018-09-15T17:23:19.347Z,16.82
2018-09-15T17:25:47.632Z,16.56
2018-09-15T17:28:15.934Z,16.27
2018-09-15T17:30:44.576Z,16.00
2018-09-15T17:33:12.886Z,15.69
2018-09-15T17:35:41.186Z,15.48
2018-09-15T17:38:09.466Z,15.10
2018-09-15T17:40:38.130Z,14.90
2018-09-15T17:43:06.423Z,14.61
2018-09-15T17:45:34.734Z,14.36
2018-09-15T17:48:03.090Z,14.19
2018-09-15T17:50:31.391Z,13.96
2018-09-15T17:52:59.674Z,13.87
2018-09-15T17:55:27.966Z,13.63
2018-09-15T17:57:56.239Z,13.54
2018-09-15T18:00:24.564Z,13.44
2018-09-15T18:02:52.991Z,13.34
2018-09-15T18:05:21.282Z,13.26
2018-09-15T18:07:49.575Z,13.21
2018-09-15T18:10:17.868Z,13.16
2018-09-15T18:12:46.166Z,13.15
2018-09-15T18:15:14.457Z,13.02
2018-09-15T18:17:42.733Z,12.98
2018-09-15T18:20:11.022Z,12.86
2018-09-15T18:22:39.288Z,12.86
2018-09-15T18:25:07.630Z,12.76
2018-09-15T18:27:35.919Z,12.70
2018-09-15T18:30:04.347Z,12.52
2018-09-15T18:32:33.043Z,12.34
2018-09-15T18:35:01.802Z,12.23
2018-09-15T18:37:30.079Z,12.09
2018-09-15T18:39:58.375Z,12.01
2018-09-15T18:42:26.656Z,11.94
2018-09-15T18:44:54.962Z,11.88
2018-09-15T18:47:23.230Z,11.75
2018-09-15T18:49:51.523Z,11.70
2018-09-15T18:52:19.782Z,11.58
2018-09-15T18:54:48.098Z,11.52
2018-09-15T18:57:16.403Z,11.51
2018-09-15T18:59:44.742Z,11.48
2018-09-15T19:02:13.035Z,11.46
2018-09-15T19:04:41.703Z,11.32
2018-09-15T19:07:10.024Z,11.24
2018-09-15T19:09:38.310Z,11.13
2018-09-15T19:12:06.663Z,11.13
2018-09-15T19:14:34.952Z,11.19
2018-09-15T19:17:03.251Z,11.12
2018-09-15T19:19:31.520Z,11.03
2018-09-15T19:22:00.271Z,10.97
2018-09-15T19:24:28.643Z,10.97
2018-09-15T19:26:57.008Z,11.00
2018-09-15T19:29:25.275Z,10.97
2018-09-15T19:31:53.585Z,10.94
2018-09-15T19:34:22.271Z,10.87
2018-09-15T19:36:50.559Z,10.92
2018-09-15T19:39:18.838Z,10.89
2018-09-15T19:41:47.155Z,10.85
2018-09-15T19:44:15.419Z,10.77
2018-09-15T19:46:43.690Z,10.73
2018-09-15T19:49:12.450Z,10.68
2018-09-15T19:51:40.743Z,10.56
2018-09-15T19:54:09.042Z,10.42
2018-09-15T19:56:37.311Z,10.46
2018-09-15T19:59:05.643Z,10.41
2018-09-15T20:01:33.934Z,10.39
2018-09-15T20:04:02.232Z,10.37
2018-09-15T20:06:30.508Z,10.36
2018-09-15T20:08:58.795Z,10.32
2018-09-15T20:11:27.070Z,10.35
2018-09-15T20:13:55.379Z,10.29
2018-09-15T20:16:22.883Z,10.14
2018-09-15T20:18:50.161Z,10.19
2018-09-15T20:21:17.347Z,10.24
2018-09-15T20:23:45.663Z,10.26
2018-09-15T20:26:13.972Z,10.29
2018-09-15T20:28:42.263Z,10.16
2018-09-15T20:31:10.539Z,10.17
2018-09-15T20:33:38.826Z,10.12
2018-09-15T20:36:07.299Z,10.18
2018-09-15T20:38:35.607Z,10.13
2018-09-15T20:41:03.891Z,10.07
2018-09-15T20:43:32.188Z,10.21
2018-09-15T20:46:00.449Z,10.12
2018-09-15T20:48:28.741Z,10.18
2018-09-15T20:50:57.031Z,10.21
2018-09-15T20:53:25.339Z,10.13
2018-09-15T20:55:53.616Z,10.01
2018-09-15T20:58:21.956Z,9.92
2018-09-15T21:00:50.300Z,9.85
2018-09-15T21:03:18.619Z,9.80
2018-09-15T21:05:46.908Z,9.75
2018-09-15T21:08:15.289Z,9.61
2018-09-15T21:10:43.582Z,9.66
2018-09-15T21:13:11.879Z,9.67
2018-09-15T21:15:40.168Z,9.65
2018-09-15T21:18:08.491Z,9.67
2018-09-15T21:20:36.895Z,9.61
2018-09-15T21:23:05.238Z,9.60
2018-09-15T21:25:33.554Z,9.53
2018-09-15T21:28:01.896Z,9.58
2018-09-15T21:30:30.244Z,9.53
2018-09-15T21:32:58.949Z,9.55
2018-09-15T21:35:27.575Z,9.61
2018-09-15T21:37:55.863Z,9.61
2018-09-15T21:40:24.171Z,9.58
2018-09-15T21:42:52.456Z,9.57
2018-09-15T21:45:20.764Z,9.49
2018-09-15T21:47:49.057Z,9.48
2018-09-15T21:50:17.368Z,9.36
2018-09-15T21:52:45.646Z,9.26
2018-09-15T21:55:16.819Z,9.27
2018-09-15T21:57:45.132Z,9.29
2018-09-15T22:00:13.515Z,9.32
2018-09-15T22:02:41.808Z,9.29
2018-09-15T22:05:10.127Z,9.32
2018-09-15T22:07:38.452Z,9.39
2018-09-15T22:10:06.780Z,9.41
2018-09-15T22:12:35.075Z,9.54
2018-09-15T22:15:03.414Z,9.45
2018-09-15T22:17:31.719Z,9.40
2018-09-15T22:20:00.055Z,9.33
2018-09-15T22:22:28.491Z,9.31
2018-09-15T22:24:56.747Z,9.26
2018-09-15T22:27:25.035Z,9.23
2018-09-15T22:29:53.359Z,9.22
2018-09-15T22:32:21.646Z,9.19
2018-09-15T22:34:49.955Z,9.19
2018-09-15T22:37:18.267Z,9.06
2018-09-15T22:39:46.575Z,9.01
2018-09-15T22:42:14.899Z,8.92
2018-09-15T22:44:43.176Z,8.79
2018-09-15T22:47:11.559Z,8.68
2018-09-15T22:49:39.852Z,8.59
2018-09-15T22:52:08.170Z,8.66
2018-09-15T22:54:36.495Z,8.67
2018-09-15T22:57:04.879Z,8.68
2018-09-15T22:59:33.162Z,8.66
2018-09-15T23:02:01.483Z,8.64
2018-09-15T23:04:29.770Z,8.55
2018-09-15T23:06:58.087Z,8.64
2018-09-15T23:09:26.390Z,8.55
2018-09-15T23:11:54.687Z,8.58
2018-09-15T23:14:22.990Z,8.50
2018-09-15T23:16:51.307Z,8.53
2018-09-15T23:19:19.590Z,8.52
2018-09-15T23:21:47.899Z,8.54
2018-09-15T23:24:16.182Z,8.59
2018-09-15T23:26:44.492Z,8.53
2018-09-15T23:29:12.783Z,8.53
2018-09-15T23:31:41.348Z,8.50
2018-09-15T23:34:09.842Z,8.55
2018-09-15T23:36:38.159Z,8.48
2018-09-15T23:39:08.328Z,8.38
2018-09-15T23:41:37.531Z,8.26
2018-09-15T23:44:05.867Z,8.27
2018-09-15T23:46:34.175Z,8.23
2018-09-15T23:49:02.483Z,8.20
2018-09-15T23:51:30.758Z,8.24
2018-09-15T23:53:59.063Z,8.19
2018-09-15T23:56:28.355Z,8.25
2018-09-15T23:58:56.679Z,8.20
